Time;durP1;ratioP1;P1;durP2;ratioP2;P2;SDS_P1;SDS_P2;PMS_P1;PMS_P2;Temp;Humidity;BMP_temperature;BMP_pressure;BME280_temperature;BME280_humidity;BME280_pressure;Samples;Min_cycle;Max_cycle;Signal;HPM_P1;HPM_P2
2021/11/11 00:01:42;;;;;;;34.28;24.33;;;;;;;14.26;66.86;103205.41;4916468;28;102185;-55
2021/11/11 00:04:11;;;;;;;35.85;24.00;;;;;;;14.27;66.94;103212.56;4914591;28;103709;-55
2021/11/11 00:06:39;;;;;;;33.35;24.50;;;;;;;14.27;66.96;103218.03;4917790;28;102309;-55
2021/11/11 00:09:06;;;;;;;32.78;23.05;;;;;;;14.27;66.84;103212.56;4915233;28;102677;-55
2021/11/11 00:11:34;;;;;;;34.08;24.73;;;;;;;14.27;67.29;103212.56;4916806;28;102403;-56
2021/11/11 00:14:00;;;;;;;37.85;24.58;;;;;;;14.26;67.19;103208.97;4919443;28;103925;-55
2021/11/11 00:16:28;;;;;;;34.28;24.27;;;;;;;14.26;67.10;103195.28;4919601;28;102074;-55
2021/11/11 00:18:54;;;;;;;35.38;24.60;;;;;;;14.26;66.74;103194.47;4916395;28;102432;-55
2021/11/11 00:21:23;;;;;;;36.00;24.20;;;;;;;14.27;67.03;103193.38;4918119;28;102867;-55
2021/11/11 00:23:49;;;;;;;33.92;24.10;;;;;;;14.25;67.39;103188.16;4913883;28;103760;-55
2021/11/11 00:26:17;;;;;;;34.67;23.50;;;;;;;14.26;67.17;103197.19;4916879;28;102597;-55
2021/11/11 00:28:44;;;;;;;32.28;23.63;;;;;;;14.25;66.84;103193.63;4915905;28;102498;-55
2021/11/11 00:31:10;;;;;;;35.92;24.88;;;;;;;14.25;66.97;103188.16;4918966;28;102868;-55
2021/11/11 00:33:37;;;;;;;34.58;23.58;;;;;;;14.26;67.06;103183.50;4920509;28;102700;-55
2021/11/11 00:36:04;;;;;;;33.60;23.30;;;;;;;14.25;67.12;103176.38;4921571;28;102331;-55
2021/11/11 00:38:31;;;;;;;33.92;23.15;;;;;;;14.25;66.89;103170.88;4918316;28;102176;-56
2021/11/11 00:40:57;;;;;;;32.95;23.17;;;;;;;14.26;67.15;103172.53;4922240;28;102608;-55
2021/11/11 00:43:25;;;;;;;31.27;22.73;;;;;;;14.24;67.11;103169.19;4914426;28;104744;-55
2021/11/11 00:45:52;;;;;;;33.60;23.02;;;;;;;14.25;66.84;103168.16;4925693;28;102365;-56
2021/11/11 00:48:18;;;;;;;34.08;24.25;;;;;;;14.25;66.98;103159.94;4914787;28;102692;-55
2021/11/11 00:50:45;;;;;;;32.08;22.58;;;;;;;14.24;67.13;103155.50;4916121;28;102406;-55
2021/11/11 00:53:11;;;;;;;32.22;23.08;;;;;;;14.24;67.32;103155.50;4916029;28;103812;-55
2021/11/11 00:55:38;;;;;;;31.00;22.48;;;;;;;14.25;67.01;103148.97;4919783;28;103327;-55
2021/11/11 00:58:07;;;;;;;35.42;22.88;;;;;;;14.24;67.24;103144.53;4920435;28;102231;-55
2021/11/11 01:00:37;;;;;;;32.83;23.13;;;;;;;14.24;67.33;103147.28;4916322;28;102247;-55
2021/11/11 01:03:05;;;;;;;34.50;23.98;;;;;;;14.25;67.04;103154.44;4914934;28;104048;-55
2021/11/11 01:05:31;;;;;;;31.08;22.92;;;;;;;14.23;66.96;103151.94;4918617;28;102208;-55
2021/11/11 01:07:58;;;;;;;32.38;22.75;;;;;;;14.25;66.85;103140.75;4916936;28;102330;-55
2021/11/11 01:10:24;;;;;;;32.97;23.48;;;;;;;14.23;67.21;103130.03;4914565;28;102670;-55
2021/11/11 01:12:51;;;;;;;34.42;23.50;;;;;;;14.23;67.03;103131.94;4914865;28;103907;-55
2021/11/11 01:15:22;;;;;;;32.22;22.77;;;;;;;14.23;67.11;103134.66;4915670;28;102176;-55
2021/11/11 01:17:51;;;;;;;32.58;21.77;;;;;;;14.22;67.23;103133.00;4916829;28;102479;-55
2021/11/11 01:20:19;;;;;;;30.70;21.92;;;;;;;14.23;67.00;103129.19;4916521;28;102620;-55
2021/11/11 01:22:47;;;;;;;34.22;23.35;;;;;;;14.24;67.17;103130.84;4916135;28;103996;-54
2021/11/11 01:25:17;;;;;;;32.25;22.70;;;;;;;14.23;67.02;103124.53;4918140;28;101951;-55
2021/11/11 01:27:44;;;;;;;35.05;23.17;;;;;;;14.22;66.97;103120.16;4925608;28;102106;-55
2021/11/11 01:30:12;;;;;;;35.13;23.77;;;;;;;14.23;66.91;103120.97;4919085;28;102457;-56
2021/11/11 01:32:38;;;;;;;31.33;22.73;;;;;;;14.22;66.99;103122.06;4918660;28;103886;-55
2021/11/11 01:35:08;;;;;;;34.40;22.75;;;;;;;14.22;66.85;103122.06;4921387;28;102203;-55
2021/11/11 01:37:36;;;;;;;32.10;23.40;;;;;;;14.22;66.96;103122.88;4921721;28;102272;-56
2021/11/11 01:40:04;;;;;;;33.53;22.90;;;;;;;14.22;67.04;103116.59;4918609;28;102377;-55
2021/11/11 01:42:40;;;;;;;32.78;22.60;;;;;;;14.22;67.01;103116.59;4917817;28;104035;-61
2021/11/11 01:45:08;;;;;;;33.00;24.48;;;;;;;14.21;67.01;103110.28;4920468;28;102084;-56
2021/11/11 01:47:36;;;;;;;30.83;22.58;;;;;;;14.21;67.10;103113.00;4918703;28;102360;-56
2021/11/11 01:50:04;;;;;;;34.30;23.13;;;;;;;14.21;66.84;103114.88;4927173;28;102528;-55
2021/11/11 01:52:32;;;;;;;33.20;22.48;;;;;;;14.22;67.13;103105.63;4925901;28;104098;-56
2021/11/11 01:55:00;;;;;;;29.48;22.02;;;;;;;14.22;67.35;103100.16;4925898;28;102244;-56
2021/11/11 01:57:27;;;;;;;31.92;22.38;;;;;;;14.22;67.22;103097.41;4931056;28;102113;-55
2021/11/11 01:59:54;;;;;;;32.58;23.45;;;;;;;14.21;67.33;103093.84;4925552;28;102268;-55
2021/11/11 02:02:24;;;;;;;29.48;21.98;;;;;;;14.21;67.12;103084.75;4921935;28;103876;-55
2021/11/11 02:04:51;;;;;;;32.72;23.60;;;;;;;14.20;66.92;103086.66;4921978;28;102998;-55
2021/11/11 02:07:17;;;;;;;36.70;23.42;;;;;;;14.21;67.06;103090.25;4905804;28;102271;-55
2021/11/11 02:09:46;;;;;;;34.17;22.98;;;;;;;14.20;67.06;103086.66;4919556;28;102419;-55
2021/11/11 02:12:13;;;;;;;34.95;23.05;;;;;;;14.21;67.16;103082.03;4912270;28;104291;-55
2021/11/11 02:14:40;;;;;;;30.23;21.77;;;;;;;14.20;67.03;103081.19;4920293;28;102753;-55
2021/11/11 02:17:06;;;;;;;33.60;23.05;;;;;;;14.21;67.20;103087.50;4919506;28;102214;-55
2021/11/11 02:19:33;;;;;;;37.13;22.88;;;;;;;14.21;67.15;103084.75;4921122;28;102332;-55
2021/11/11 02:22:04;;;;;;;31.05;20.75;;;;;;;14.19;67.13;103085.84;4918280;28;104512;-56
2021/11/11 02:24:31;;;;;;;30.73;21.38;;;;;;;14.20;67.45;103086.66;4926371;28;102503;-55
2021/11/11 02:26:58;;;;;;;29.40;21.77;;;;;;;14.19;67.29;103079.53;4918232;28;102237;-56
2021/11/11 02:29:26;;;;;;;32.90;22.35;;;;;;;14.20;67.15;103081.19;4918375;28;102471;-56
2021/11/11 02:31:52;;;;;;;31.73;22.73;;;;;;;14.19;67.03;103074.88;4920000;28;103911;-55
2021/11/11 02:34:19;;;;;;;30.05;22.38;;;;;;;14.18;67.40;103077.88;4919347;28;102299;-55
2021/11/11 02:36:54;;;;;;;30.98;21.80;;;;;;;14.18;67.16;103078.72;4917652;28;102496;-55
2021/11/11 02:39:22;;;;;;;32.45;22.27;;;;;;;14.18;67.21;103075.97;4919639;28;102367;-56
2021/11/11 02:41:49;;;;;;;31.27;22.58;;;;;;;14.18;67.02;103070.50;4917173;28;103967;-55
2021/11/11 02:44:16;;;;;;;30.63;21.77;;;;;;;14.18;67.09;103073.22;4921657;28;102215;-55
2021/11/11 02:46:42;;;;;;;33.50;22.17;;;;;;;14.18;66.90;103067.75;4917792;28;102320;-56
2021/11/11 02:49:09;;;;;;;33.38;21.60;;;;;;;14.19;67.13;103069.41;4909301;28;102630;-55
2021/11/11 02:51:35;;;;;;;32.03;22.98;;;;;;;14.18;67.30;103056.81;4920962;28;103973;-55
2021/11/11 02:54:02;;;;;;;29.48;21.25;;;;;;;14.17;67.31;103063.34;4924798;28;102238;-55
2021/11/11 02:56:31;;;;;;;30.08;19.90;;;;;;;14.18;67.17;103056.81;4918102;28;102522;-55
2021/11/11 02:58:58;;;;;;;30.73;21.77;;;;;;;14.18;67.09;103045.03;4922336;28;102592;-55
2021/11/11 03:01:25;;;;;;;31.20;21.27;;;;;;;14.18;67.03;103045.84;4917028;28;103829;-55
2021/11/11 03:03:51;;;;;;;34.60;22.92;;;;;;;14.18;67.21;103053.22;4918195;28;102215;-55
2021/11/11 03:06:17;;;;;;;28.55;20.80;;;;;;;14.17;67.00;103046.06;4944507;23;102760;-55
2021/11/11 03:08:44;;;;;;;30.90;22.50;;;;;;;14.18;67.28;103045.03;4953197;28;102249;-56
2021/11/11 03:11:12;;;;;;;28.80;20.58;;;;;;;14.17;67.04;103030.50;4951905;28;103930;-56
2021/11/11 03:13:40;;;;;;;28.75;21.45;;;;;;;14.18;67.21;103039.53;4955263;28;102781;-55
2021/11/11 03:16:07;;;;;;;31.73;21.15;;;;;;;14.17;67.23;103032.38;4959641;28;102182;-55
2021/11/11 03:18:38;;;;;;;29.05;21.05;;;;;;;14.17;67.04;103022.28;4953419;28;102249;-55
2021/11/11 03:21:05;;;;;;;33.50;21.10;;;;;;;14.17;67.18;103022.28;4957760;28;102986;-55
2021/11/11 03:23:31;;;;;;;29.95;20.33;;;;;;;14.16;67.14;103022.50;4950723;28;102441;-55
2021/11/11 03:25:57;;;;;;;31.70;20.67;;;;;;;14.18;67.12;103023.09;4941656;28;103135;-55
2021/11/11 03:28:25;;;;;;;31.33;21.52;;;;;;;14.16;67.31;103004.16;4932206;28;102192;-55
2021/11/11 03:30:53;;;;;;;29.90;21.23;;;;;;;14.17;67.36;103005.00;4931222;28;103915;-55
2021/11/11 03:33:21;;;;;;;28.80;20.55;;;;;;;14.16;67.30;102987.72;4934771;28;102609;-55
2021/11/11 03:35:48;;;;;;;31.38;20.30;;;;;;;14.16;67.13;102993.22;4926404;28;102228;-55
2021/11/11 03:38:14;;;;;;;28.05;21.05;;;;;;;14.17;67.40;102988.56;4924627;28;102580;-55
2021/11/11 03:40:43;;;;;;;29.50;19.90;;;;;;;14.16;67.04;102992.38;4935360;28;103927;-55
2021/11/11 03:43:10;;;;;;;;;;;;;;;14.16;66.98;102985.00;4932344;28;102692;-56
2021/11/11 03:45:38;;;;;;;27.23;19.23;;;;;;;14.17;67.32;102989.41;4929221;28;102190;-56
2021/11/11 03:48:06;;;;;;;29.30;20.88;;;;;;;14.16;67.17;102982.25;4934829;28;102434;-55
2021/11/11 03:50:33;;;;;;;28.65;20.15;;;;;;;14.16;67.34;102975.94;4937125;28;104210;-56
2021/11/11 03:53:01;;;;;;;27.80;19.88;;;;;;;14.16;67.05;102970.47;4935709;28;103732;-56
2021/11/11 03:55:28;;;;;;;26.20;19.55;;;;;;;14.15;67.39;102975.13;4937178;28;102144;-56
2021/11/11 03:57:56;;;;;;;27.25;19.73;;;;;;;14.15;67.13;102971.56;4936334;28;102160;-55
2021/11/11 04:00:24;;;;;;;31.90;19.90;;;;;;;14.16;67.14;102970.47;4942519;28;103896;-56
2021/11/11 04:02:50;;;;;;;26.05;18.92;;;;;;;14.15;67.23;102957.88;4930590;28;104704;-56
2021/11/11 04:05:19;;;;;;;29.08;20.20;;;;;;;14.15;67.31;102972.38;4925799;28;102159;-56
2021/11/11 04:07:45;;;;;;;28.83;19.73;;;;;;;14.14;67.24;102973.47;4935646;28;102372;-55
2021/11/11 04:10:14;;;;;;;29.58;20.33;;;;;;;14.15;66.92;102969.66;4923982;28;103981;-55
2021/11/11 04:12:41;;;;;;;28.92;19.80;;;;;;;14.14;67.18;102962.50;4935148;28;102331;-55
2021/11/11 04:15:10;;;;;;;26.65;18.77;;;;;;;14.14;67.30;102962.50;4932810;28;102246;-56
2021/11/11 04:17:39;;;;;;;29.33;19.30;;;;;;;14.15;67.34;102975.13;4937631;28;102265;-55
2021/11/11 04:20:06;;;;;;;28.10;19.17;;;;;;;14.14;67.39;102973.47;4921439;28;104071;-55
2021/11/11 04:22:34;;;;;;;27.52;18.48;;;;;;;14.14;67.02;102967.97;4934625;28;102152;-56
2021/11/11 04:25:02;;;;;;;26.35;18.70;;;;;;;14.14;67.15;102973.47;4948575;28;102063;-56
2021/11/11 04:27:56;;;;;;;25.50;18.00;;;;;;;14.14;67.11;102972.63;4941060;28;102570;-55
2021/11/11 04:32:43;;;;;;;25.67;18.10;;;;;;;14.14;67.50;102970.72;4932561;28;102211;-56
2021/11/11 04:35:10;;;;;;;27.52;18.92;;;;;;;14.13;67.00;102960.81;4933829;28;102065;-55
2021/11/11 04:49:04;;;;;;;27.38;18.75;;;;;;;14.12;67.28;102964.66;4920861;28;102612;-56
2021/11/11 05:02:38;;;;;;;24.60;16.90;;;;;;;14.12;67.32;102981.06;4937800;28;103944;-56
2021/11/11 05:05:06;;;;;;;23.65;17.08;;;;;;;14.12;67.37;102969.28;4925720;28;102241;-55
2021/11/11 05:07:34;;;;;;;26.40;17.48;;;;;;;14.12;67.61;102986.56;4936271;28;102511;-56
2021/11/11 05:10:02;;;;;;;23.63;17.20;;;;;;;14.11;67.28;102984.91;4940723;28;102699;-56
2021/11/11 05:12:29;;;;;;;;;;;;;;;14.11;67.31;102976.69;4932762;28;103954;-56
2021/11/11 05:14:56;;;;;;;22.55;16.17;;;;;;;14.12;67.14;102981.06;4935849;28;102048;-56
2021/11/11 05:17:23;;;;;;;23.25;16.60;;;;;;;14.11;67.44;102990.38;4937796;28;103493;-56
2021/11/11 05:19:50;;;;;;;24.23;16.45;;;;;;;14.11;67.18;102987.63;4939858;28;102245;-56
2021/11/11 05:22:16;;;;;;;21.70;16.35;;;;;;;14.11;67.08;102987.63;4937400;28;104153;-56
2021/11/11 05:24:43;;;;;;;21.42;15.50;;;;;;;14.11;66.96;102998.59;4928790;28;102177;-55
2021/11/11 05:27:13;;;;;;;23.90;16.63;;;;;;;14.11;67.30;103001.31;4943339;28;102242;-56
2021/11/11 05:29:39;;;;;;;23.13;15.15;;;;;;;14.12;67.52;102991.19;4938727;28;102516;-56
2021/11/11 05:32:06;;;;;;;22.60;15.38;;;;;;;14.11;67.12;102993.09;4947157;28;104265;-56
2021/11/11 05:34:33;;;;;;;22.48;15.98;;;;;;;14.11;67.42;102987.63;4946424;28;102259;-55
2021/11/11 05:37:00;;;;;;;23.48;15.38;;;;;;;14.10;67.13;102991.44;4939504;28;102218;-56
2021/11/11 05:39:26;;;;;;;24.83;15.75;;;;;;;14.11;67.26;102990.38;4941605;28;102379;-56
2021/11/11 05:41:52;;;;;;;22.27;15.38;;;;;;;14.10;67.42;102994.19;4939110;28;103922;-56
2021/11/11 05:44:20;;;;;;;21.83;15.30;;;;;;;14.11;67.11;103000.50;4939405;28;102087;-56
2021/11/11 05:46:47;;;;;;;20.88;15.00;;;;;;;14.11;67.19;102989.53;4936838;28;102422;-55
2021/11/11 05:49:13;;;;;;;20.08;15.00;;;;;;;14.10;67.24;102988.72;4938169;28;102623;-55
2021/11/11 05:51:39;;;;;;;19.13;14.70;;;;;;;14.11;67.44;102993.09;4938752;28;103887;-56
2021/11/11 05:54:07;;;;;;;21.48;14.77;;;;;;;14.11;67.15;102990.38;4938782;28;102223;-56
2021/11/11 05:56:34;;;;;;;21.97;14.60;;;;;;;14.10;67.01;102988.72;4937647;28;102380;-56
2021/11/11 05:59:00;;;;;;;19.75;14.73;;;;;;;14.11;67.11;102987.63;4930716;28;102213;-55
2021/11/11 06:01:28;;;;;;;20.73;14.75;;;;;;;14.11;67.16;102995.84;4936055;28;103953;-56
2021/11/11 06:03:54;;;;;;;21.05;14.77;;;;;;;14.10;67.43;102991.44;4924761;28;102409;-56
2021/11/11 06:06:21;;;;;;;19.95;14.40;;;;;;;14.11;67.20;102990.38;4936836;28;102227;-56
2021/11/11 06:08:50;;;;;;;20.08;14.07;;;;;;;14.11;67.23;103001.31;4937603;28;102322;-56
2021/11/11 06:11:17;;;;;;;21.20;14.90;;;;;;;14.12;67.34;103002.16;4936437;28;104004;-56
2021/11/11 06:13:44;;;;;;;21.80;14.88;;;;;;;14.10;67.25;102991.44;4937276;28;103776;-55
2021/11/11 06:16:10;;;;;;;20.90;14.90;;;;;;;14.12;67.13;102993.94;4937048;28;104654;-55
2021/11/11 06:18:40;;;;;;;22.20;14.75;;;;;;;14.11;67.30;102987.63;4934208;28;102688;-56
2021/11/11 06:21:06;;;;;;;20.13;14.90;;;;;;;14.12;67.52;102985.72;4934693;28;104403;-56
2021/11/11 06:23:34;;;;;;;19.80;14.02;;;;;;;14.12;67.28;102986.56;4936027;28;102384;-56
2021/11/11 06:26:02;;;;;;;19.65;14.00;;;;;;;14.10;67.33;102977.75;4927903;28;102201;-56
2021/11/11 06:28:29;;;;;;;20.25;14.80;;;;;;;14.10;67.37;102977.75;4936089;28;102571;-55
2021/11/11 06:30:55;;;;;;;21.73;15.48;;;;;;;14.11;67.47;102979.41;4925449;28;103813;-56
2021/11/11 06:33:22;;;;;;;19.50;13.38;;;;;;;14.11;67.23;102984.91;4924539;28;102738;-56
2021/11/11 06:35:50;;;;;;;19.65;14.65;;;;;;;14.11;67.30;102979.41;4930868;28;102489;-56
2021/11/11 06:38:17;;;;;;;22.58;14.65;;;;;;;14.12;67.24;102986.56;4932361;28;103248;-56
2021/11/11 06:40:43;;;;;;;20.85;13.95;;;;;;;14.12;67.12;102989.28;4933083;28;104116;-56
2021/11/11 06:43:10;;;;;;;22.20;15.90;;;;;;;14.12;67.48;102981.06;4924999;28;103717;-56
2021/11/11 06:45:41;;;;;;;19.20;14.40;;;;;;;14.12;67.26;102981.06;4925069;28;103877;-55
2021/11/11 06:48:14;;;;;;;19.73;14.40;;;;;;;14.13;67.64;102985.47;4932446;28;102554;-56
2021/11/11 06:50:43;;;;;;;19.13;14.38;;;;;;;14.12;67.28;102977.50;4930413;28;103912;-56
2021/11/11 06:53:13;;;;;;;19.73;13.32;;;;;;;14.14;67.00;102975.38;4936685;28;102646;-56
2021/11/11 06:55:42;;;;;;;19.88;14.43;;;;;;;14.14;67.27;102981.69;4934196;28;102401;-56
2021/11/11 06:58:09;;;;;;;20.27;14.80;;;;;;;14.14;67.30;102972.63;4940371;28;102141;-57
2021/11/11 07:00:36;;;;;;;20.50;14.05;;;;;;;14.14;67.37;102967.97;4933313;28;103890;-56
2021/11/11 07:03:02;;;;;;;21.73;14.50;;;;;;;14.14;67.43;102957.03;4935481;28;102341;-56
2021/11/11 07:05:29;;;;;;;22.33;15.38;;;;;;;14.14;67.37;102962.50;4931448;28;102267;-56
2021/11/11 07:07:56;;;;;;;19.08;13.48;;;;;;;14.14;67.52;102962.50;4930472;28;102296;-56
2021/11/11 07:10:24;;;;;;;19.60;14.65;;;;;;;14.15;67.59;102964.16;4930995;28;103994;-56
2021/11/11 07:12:51;;;;;;;17.13;10.35;;;;;;;14.16;67.49;102954.88;4943215;28;103675;-56
2021/11/11 07:15:17;;;;;;;21.33;14.73;;;;;;;14.16;67.37;102962.25;4933562;28;102539;-56
2021/11/11 07:17:44;;;;;;;23.08;14.30;;;;;;;14.16;67.54;102954.88;4934501;28;102546;-56
2021/11/11 07:20:14;;;;;;;20.15;14.48;;;;;;;14.16;67.70;102954.03;4931971;28;104008;-56
2021/11/11 07:22:43;;;;;;;18.67;13.38;;;;;;;14.16;67.59;102963.09;4933911;28;102177;-56
2021/11/11 07:25:11;;;;;;;19.27;13.77;;;;;;;14.17;67.62;102962.03;4935946;28;102175;-55
2021/11/11 07:27:39;;;;;;;20.90;13.82;;;;;;;14.17;67.48;102961.16;4935321;28;102171;-55
2021/11/11 07:30:08;;;;;;;19.35;12.65;;;;;;;14.17;67.59;102967.50;4932997;28;104056;-56
2021/11/11 07:32:36;;;;;;;20.98;13.82;;;;;;;14.16;67.43;102954.03;4928171;28;102236;-56
2021/11/11 07:35:04;;;;;;;21.63;14.10;;;;;;;14.17;67.50;102967.50;4938201;28;102262;-55
2021/11/11 07:37:30;;;;;;;16.15;12.70;;;;;;;14.17;67.56;102952.97;4936940;28;102172;-55
2021/11/11 07:39:57;;;;;;;17.90;13.30;;;;;;;14.17;67.23;102953.81;4935067;28;103909;-56
2021/11/11 07:42:25;;;;;;;19.95;13.02;;;;;;;14.17;67.20;102953.81;4937190;28;102190;-56
2021/11/11 07:44:52;;;;;;;17.45;12.15;;;;;;;14.17;67.27;102953.81;4934135;28;102246;-56
2021/11/11 07:47:27;;;;;;;18.98;12.18;;;;;;;14.17;67.08;102945.59;4932238;28;102179;-56
2021/11/11 07:49:53;;;;;;;19.63;12.77;;;;;;;14.17;67.43;102940.13;4927942;28;105271;-56
2021/11/11 07:52:20;;;;;;;19.60;13.32;;;;;;;14.17;67.16;102945.59;4930341;28;102519;-56
2021/11/11 07:54:47;;;;;;;17.10;12.13;;;;;;;14.18;67.15;102940.94;4921000;28;102537;-57
2021/11/11 07:57:15;;;;;;;18.95;11.98;;;;;;;14.17;67.13;102940.13;4927266;28;102507;-56
2021/11/11 07:59:42;;;;;;;18.30;12.05;;;;;;;14.18;66.95;102940.94;4934455;28;102791;-55
2021/11/11 08:02:10;;;;;;;19.33;11.38;;;;;;;14.17;66.78;102934.66;4935512;28;102808;-56
2021/11/11 08:04:37;;;;;;;15.93;10.98;;;;;;;14.17;66.93;102942.88;4929936;28;102292;-56
2021/11/11 08:07:04;;;;;;;17.95;12.70;;;;;;;14.18;66.83;102935.47;4942241;28;102962;-56
2021/11/11 08:09:30;;;;;;;17.83;12.15;;;;;;;14.18;66.91;102936.31;4925988;28;104014;-56
2021/11/11 08:11:57;;;;;;;12.02;9.88;;;;;;;14.17;66.84;102934.66;4931002;28;102121;-56
2021/11/11 08:14:25;;;;;;;14.18;9.85;;;;;;;14.18;66.84;102930.00;4928717;28;102164;-56
2021/11/11 08:16:54;;;;;;;14.57;9.60;;;;;;;14.17;67.00;102929.16;4938664;28;104584;-56
2021/11/11 08:19:27;;;;;;;16.17;9.77;;;;;;;14.17;66.87;102920.09;4938065;28;103990;-56
2021/11/11 08:21:54;;;;;;;13.07;9.57;;;;;;;14.17;66.73;102929.16;4940196;28;102205;-56
2021/11/11 08:24:20;;;;;;;14.25;9.20;;;;;;;14.17;66.60;102922.84;4933645;28;102785;-56
2021/11/11 08:26:49;;;;;;;11.68;7.88;;;;;;;14.17;66.25;102915.47;4938767;28;101899;-56
2021/11/11 08:29:15;;;;;;;12.60;8.05;;;;;;;14.16;66.60;102916.53;4933753;28;103876;-56
2021/11/11 08:31:42;;;;;;;11.60;8.18;;;;;;;14.16;66.37;102913.78;4935742;28;102159;-56
2021/11/11 08:34:08;;;;;;;12.38;8.52;;;;;;;14.16;66.50;102910.22;4937180;28;102573;-56
2021/11/11 08:36:39;;;;;;;10.63;8.07;;;;;;;14.15;66.03;102906.66;4936217;28;102687;-56
2021/11/11 08:39:06;;;;;;;11.32;7.45;;;;;;;14.16;66.15;102908.31;4931570;28;103895;-56
2021/11/11 08:41:32;;;;;;;10.50;7.32;;;;;;;14.16;66.29;102907.50;4933455;28;102211;-56
2021/11/11 08:43:59;;;;;;;9.70;7.07;;;;;;;14.15;66.03;102914.88;4929004;28;102156;-56
2021/11/11 08:46:25;;;;;;;13.18;7.88;;;;;;;14.15;65.98;102914.88;4937983;28;102254;-56
2021/11/11 08:48:53;;;;;;;12.20;8.40;;;;;;;14.16;66.25;102913.78;4930141;28;103950;-56
2021/11/11 08:51:20;;;;;;;10.63;7.75;;;;;;;14.17;66.26;102911.88;4937384;28;102117;-56
2021/11/11 08:53:49;;;;;;;13.75;8.40;;;;;;;14.17;66.18;102906.41;4929208;28;102356;-56
2021/11/11 08:56:17;;;;;;;12.60;8.13;;;;;;;14.18;66.36;102908.91;4934810;28;102255;-57
2021/11/11 08:58:45;;;;;;;516.42;36.00;;;;;;;14.19;66.34;102912.47;4931674;28;103871;-55
2021/11/11 09:01:12;;;;;;;114.40;16.80;;;;;;;14.21;66.57;102901.28;4937220;28;102179;-56
2021/11/11 09:03:40;;;;;;;15.93;8.15;;;;;;;14.22;66.58;102892.84;4936402;28;102333;-56
2021/11/11 09:06:07;;;;;;;13.07;7.68;;;;;;;14.22;66.25;102892.84;4936675;28;102349;-57
2021/11/11 09:08:34;;;;;;;356.00;23.45;;;;;;;14.24;66.61;102889.84;4931459;28;103952;-57
2021/11/11 09:11:02;;;;;;;12.60;7.45;;;;;;;14.24;66.83;102884.38;4924500;28;101990;-56
2021/11/11 09:13:31;;;;;;;9.93;7.20;;;;;;;14.23;66.43;102880.78;4936786;28;102446;-56
2021/11/11 09:15:58;;;;;;;10.93;7.13;;;;;;;14.25;66.61;102880.56;4934102;28;102193;-56
2021/11/11 09:18:25;;;;;;;11.00;7.00;;;;;;;14.26;66.62;102887.69;4931501;28;104091;-56
2021/11/11 09:20:52;;;;;;;9.48;6.80;;;;;;;14.26;66.68;102876.75;4933127;28;103564;-57
2021/11/11 09:23:18;;;;;;;9.40;6.97;;;;;;;14.26;66.76;102874.00;4926688;28;102510;-56
2021/11/11 09:25:45;;;;;;;10.13;6.60;;;;;;;14.27;66.79;102872.94;4933559;28;102222;-56
2021/11/11 09:28:17;;;;;;;10.13;6.93;;;;;;;14.26;66.81;102866.63;4935348;28;104066;-58
2021/11/11 09:30:43;;;;;;;12.53;6.60;;;;;;;14.27;66.79;102867.44;4933668;28;103545;-57
2021/11/11 09:33:10;;;;;;;8.93;5.72;;;;;;;14.28;66.88;102863.63;4926170;28;102319;-56
2021/11/11 09:35:37;;;;;;;10.43;5.95;;;;;;;14.28;66.94;102863.63;4928422;28;102386;-56
2021/11/11 09:38:04;;;;;;;8.60;6.40;;;;;;;14.27;66.68;102856.50;4931881;28;104070;-56
2021/11/11 09:40:31;;;;;;;9.55;6.63;;;;;;;14.27;66.69;102861.97;4927726;28;102380;-55
2021/11/11 09:42:58;;;;;;;10.40;6.28;;;;;;;14.28;66.96;102858.16;4930363;28;102536;-56
2021/11/11 09:45:30;;;;;;;9.18;5.95;;;;;;;14.27;66.90;102856.50;4932755;28;102508;-55
2021/11/11 09:47:59;;;;;;;7.03;5.22;;;;;;;14.27;67.08;102845.53;4936029;28;104043;-56
2021/11/11 09:50:27;;;;;;;8.65;5.72;;;;;;;14.28;66.88;102852.66;4938461;28;104512;-56
2021/11/11 09:52:54;;;;;;;7.35;5.18;;;;;;;14.28;66.83;102847.19;4937994;28;102319;-56
2021/11/11 10:00:55;;;;;;;8.32;5.38;;;;;;;14.28;66.73;102847.19;4933498;28;104824;-56
2021/11/11 10:03:22;;;;;;;8.33;5.10;;;;;;;14.28;66.94;102842.56;4933090;28;102101;-56
2021/11/11 10:05:51;;;;;;;7.97;5.38;;;;;;;14.28;66.69;102847.19;4935737;28;102118;-56
2021/11/11 10:08:33;;;;;;;6.90;5.15;;;;;;;14.26;66.82;102822.81;4935397;28;104122;-56
2021/11/11 10:11:00;;;;;;;8.38;5.18;;;;;;;14.27;67.08;102829.09;4924772;28;102168;-58
2021/11/11 10:13:28;;;;;;;8.82;5.25;;;;;;;14.28;66.65;102820.66;4931871;28;103330;-56
2021/11/11 10:16:06;;;;;;;7.22;4.72;;;;;;;14.28;66.79;102825.28;4930049;28;102210;-56
2021/11/11 10:18:41;;;;;;;8.27;5.40;;;;;;;14.27;66.84;102818.16;4931888;28;103938;-56
2021/11/11 10:21:49;;;;;;;8.15;4.90;;;;;;;14.27;66.88;102823.63;4932028;28;102210;-56
2021/11/11 10:24:29;;;;;;;7.75;4.90;;;;;;;14.26;66.87;102819.25;4930409;28;102625;-56
2021/11/11 10:27:01;;;;;;;9.18;5.00;;;;;;;14.26;66.87;102813.75;4933500;28;103889;-56
2021/11/11 10:29:36;;;;;;;6.70;4.43;;;;;;;14.25;66.92;102815.66;4930463;28;103963;-56
2021/11/11 10:32:10;;;;;;;8.18;4.60;;;;;;;14.25;66.88;102803.88;4938043;28;102047;-56
2021/11/11 10:34:50;;;;;;;7.30;4.50;;;;;;;14.26;66.97;102811.03;4937225;28;102198;-56
2021/11/11 10:37:19;;;;;;;7.85;5.22;;;;;;;14.26;66.86;102805.53;4926843;28;102213;-56
2021/11/11 10:39:51;;;;;;;;;;;;;;;14.26;66.49;102805.53;4929960;28;104354;-56
2021/11/11 10:42:20;;;;;;;7.00;4.65;;;;;;;14.25;66.82;102807.44;4931439;28;102602;-57
2021/11/11 10:44:48;;;;;;;10.95;4.78;;;;;;;14.25;66.76;102795.66;4930204;28;104641;-55
2021/11/11 10:47:21;;;;;;;6.93;4.90;;;;;;;14.20;66.82;102793.66;4929007;28;102546;-55
2021/11/11 10:49:49;;;;;;;14.20;5.35;;;;;;;14.18;66.61;102804.03;4932221;28;104050;-55
2021/11/11 10:52:22;;;;;;;12.57;5.13;;;;;;;14.14;66.53;102790.00;4927017;28;102086;-53
2021/11/11 10:55:21;;;;;;;13.77;4.35;;;;;;;14.08;64.07;102780.00;4930352;28;103484;-54
2021/11/11 10:57:53;;;;;;;10.52;3.88;;;;;;;14.04;65.64;102770.63;4922319;28;102481;-53
2021/11/11 11:00:39;;;;;;;22.58;5.43;;;;;;;13.98;65.17;102768.88;4927919;28;108000;-54
2021/11/11 11:03:10;;;;;;;9.80;4.90;;;;;;;13.99;66.50;102762.31;4930148;28;102289;-54
2021/11/11 11:05:44;;;;;;;9.70;4.85;;;;;;;14.01;66.50;102771.13;4935031;28;102590;-54
2021/11/11 11:08:13;;;;;;;10.88;4.47;;;;;;;14.03;66.68;102763.50;4936848;28;102490;-54
2021/11/11 11:10:42;;;;;;;15.20;5.03;;;;;;;14.02;66.41;102753.59;4942724;28;103888;-54
2021/11/11 11:13:13;;;;;;;11.70;4.85;;;;;;;14.02;66.47;102745.41;4936017;28;102300;-54
2021/11/11 11:15:48;;;;;;;9.98;4.50;;;;;;;14.02;66.41;102739.91;4930174;28;102191;-54
2021/11/11 11:18:18;;;;;;;8.60;4.57;;;;;;;14.02;66.49;102744.56;4937192;28;102555;-53
2021/11/11 11:20:46;;;;;;;8.85;4.05;;;;;;;14.02;66.22;102741.81;4928382;28;103903;-53
2021/11/11 11:23:25;;;;;;;11.35;4.45;;;;;;;14.01;66.55;102741.00;4938403;28;102593;-54
2021/11/11 11:25:58;;;;;;;5.82;4.30;;;;;;;14.00;66.39;102736.63;4933959;28;102210;-54
2021/11/11 11:28:36;;;;;;;11.45;4.43;;;;;;;14.01;66.10;102727.31;4938819;28;102477;-54
2021/11/11 11:31:06;;;;;;;8.93;4.22;;;;;;;14.01;66.16;102732.78;4933237;28;104061;-54
2021/11/11 11:33:43;;;;;;;8.57;4.03;;;;;;;14.01;66.06;102732.78;4932506;28;102308;-54
2021/11/11 11:36:12;;;;;;;8.05;4.65;;;;;;;14.00;66.51;102731.13;4926747;28;102262;-54
2021/11/11 11:38:49;;;;;;;8.02;4.55;;;;;;;14.01;66.17;102716.38;4931378;28;103546;-54
2021/11/11 11:41:26;;;;;;;8.32;4.30;;;;;;;14.01;66.28;102721.84;4935157;28;102798;-54